sensor_id;sensor_type;location;lat;lon;timestamp;pressure;altitude;pressure_sealevel;temperature;humidity
63665;BME280;49820;33.966;73.390;2023-04-06T00:01:26;78774.16;;;3.38;100.00
63665;BME280;49820;33.966;73.390;2023-04-06T00:03:55;78778.09;;;3.43;100.00
63665;BME280;49820;33.966;73.390;2023-04-06T00:06:24;78791.94;;;3.50;100.00
63665;BME280;49820;33.966;73.390;2023-04-06T00:08:53;78794.59;;;3.54;100.00
63665;BME280;49820;33.966;73.390;2023-04-06T00:11:22;78816.38;;;3.64;100.00
63665;BME280;49820;33.966;73.390;2023-04-06T00:13:51;78795.25;;;3.50;100.00
63665;BME280;49820;33.966;73.390;2023-04-06T00:16:20;78795.25;;;3.50;100.00
63665;BME280;49820;33.966;73.390;2023-04-06T00:18:52;78808.47;;;3.62;100.00
63665;BME280;49820;33.966;73.390;2023-04-06T00:21:20;78828.25;;;3.71;100.00
63665;BME280;49820;33.966;73.390;2023-04-06T00:23:49;78799.19;;;3.57;100.00
63665;BME280;49820;33.966;73.390;2023-04-06T00:26:19;78833.53;;;3.69;100.00
63665;BME280;49820;33.966;73.390;2023-04-06T00:28:49;78815.03;;;3.65;100.00
63665;BME280;49820;33.966;73.390;2023-04-06T00:31:20;78819.66;;;3.79;100.00
63665;BME280;49820;33.966;73.390;2023-04-06T00:33:49;78737.19;;;3.18;100.00
63665;BME280;49820;33.966;73.390;2023-04-06T00:36:18;78807.78;;;3.68;100.00
63665;BME280;49820;33.966;73.390;2023-04-06T00:38:47;78786.66;;;3.58;100.00
63665;BME280;49820;33.966;73.390;2023-04-06T00:41:18;78795.91;;;3.61;100.00
63665;BME280;49820;33.966;73.390;2023-04-06T00:43:46;78796.53;;;3.65;100.00
63665;BME280;49820;33.966;73.390;2023-04-06T00:46:15;78828.91;;;3.76;100.00
63665;BME280;49820;33.966;73.390;2023-04-06T00:48:45;78822.97;;;3.69;100.00
63665;BME280;49820;33.966;73.390;2023-04-06T00:51:14;78819.00;;;3.76;100.00
63665;BME280;49820;33.966;73.390;2023-04-06T00:53:43;78799.22;;;3.63;100.00
63665;BME280;49820;33.966;73.390;2023-04-06T00:56:12;78720.06;;;2.92;100.00
63665;BME280;49820;33.966;73.390;2023-04-06T00:58:50;78828.22;;;3.81;100.00
63665;BME280;49820;33.966;73.390;2023-04-06T01:01:20;78842.09;;;3.84;100.00
63665;BME280;49820;33.966;73.390;2023-04-06T01:03:51;78802.50;;;3.60;100.00
63665;BME280;49820;33.966;73.390;2023-04-06T01:06:23;78827.59;;;3.77;100.00
63665;BME280;49820;33.966;73.390;2023-04-06T01:09:00;78834.19;;;3.88;100.00
63665;BME280;49820;33.966;73.390;2023-04-06T01:11:30;78806.47;;;3.61;100.00
63665;BME280;49820;33.966;73.390;2023-04-06T01:14:03;78855.31;;;3.90;100.00
63665;BME280;49820;33.966;73.390;2023-04-06T01:16:58;78863.22;;;4.00;100.00
63665;BME280;49820;33.966;73.390;2023-04-06T01:19:33;78842.09;;;3.94;100.00
63665;BME280;49820;33.966;73.390;2023-04-06T01:22:02;78849.31;;;4.10;100.00
63665;BME280;49820;33.966;73.390;2023-04-06T01:24:32;78863.78;;;4.41;100.00
63665;BME280;49820;33.966;73.390;2023-04-06T01:27:19;78856.41;;;4.76;100.00
63665;BME280;49820;33.966;73.390;2023-04-06T01:29:49;78828.00;;;4.67;100.00
63665;BME280;49820;33.966;73.390;2023-04-06T01:32:40;78857.59;;;5.06;100.00
63665;BME280;49820;33.966;73.390;2023-04-06T01:35:12;78862.59;;;5.58;100.00
63665;BME280;49820;33.966;73.390;2023-04-06T01:37:50;78860.22;;;6.16;100.00
63665;BME280;49820;33.966;73.390;2023-04-06T01:40:26;78870.31;;;6.72;100.00
63665;BME280;49820;33.966;73.390;2023-04-06T01:42:56;78883.94;;;7.03;100.00
63665;BME280;49820;33.966;73.390;2023-04-06T01:45:35;78874.75;;;6.92;100.00
63665;BME280;49820;33.966;73.390;2023-04-06T01:48:13;78861.22;;;6.51;100.00
63665;BME280;49820;33.966;73.390;2023-04-06T01:50:43;78876.69;;;6.28;100.00
63665;BME280;49820;33.966;73.390;2023-04-06T01:53:16;78898.03;;;6.14;100.00
63665;BME280;49820;33.966;73.390;2023-04-06T01:55:46;78898.00;;;6.16;100.00
63665;BME280;49820;33.966;73.390;2023-04-06T01:58:34;78880.78;;;6.15;100.00
63665;BME280;49820;33.966;73.390;2023-04-06T02:10:34;78896.13;;;8.87;100.00
63665;BME280;49820;33.966;73.390;2023-04-06T02:13:12;78891.75;;;9.10;100.00
63665;BME280;49820;33.966;73.390;2023-04-06T02:15:46;78933.91;;;8.99;100.00
63665;BME280;49820;33.966;73.390;2023-04-06T02:18:16;78912.50;;;8.62;100.00
63665;BME280;49820;33.966;73.390;2023-04-06T02:20:46;78902.53;;;8.12;100.00
63665;BME280;49820;33.966;73.390;2023-04-06T02:23:16;78886.47;;;7.71;100.00
63665;BME280;49820;33.966;73.390;2023-04-06T02:25:46;78920.91;;;7.81;100.00
63665;BME280;49820;33.966;73.390;2023-04-06T02:28:14;78929.53;;;7.81;100.00
63665;BME280;49820;33.966;73.390;2023-04-06T02:30:43;78891.06;;;7.76;100.00
63665;BME280;49820;33.966;73.390;2023-04-06T02:33:13;78926.50;;;8.61;100.00
63665;BME280;49820;33.966;73.390;2023-04-06T02:35:45;78922.50;;;9.81;100.00
63665;BME280;49820;33.966;73.390;2023-04-06T02:38:15;78922.06;;;10.38;99.24
63665;BME280;49820;33.966;73.390;2023-04-06T02:40:45;78914.16;;;10.65;92.51
63665;BME280;49820;33.966;73.390;2023-04-06T02:43:19;78944.97;;;11.22;84.81
63665;BME280;49820;33.966;73.390;2023-04-06T02:45:53;78919.56;;;11.23;89.49
63665;BME280;49820;33.966;73.390;2023-04-06T02:48:24;78901.34;;;11.29;81.11
63665;BME280;49820;33.966;73.390;2023-04-06T02:50:53;78922.53;;;11.93;84.49
63665;BME280;49820;33.966;73.390;2023-04-06T02:53:22;78927.34;;;12.15;79.97
63665;BME280;49820;33.966;73.390;2023-04-06T02:55:51;78943.00;;;12.56;75.09
63665;BME280;49820;33.966;73.390;2023-04-06T02:58:23;78941.56;;;12.84;79.30
63665;BME280;49820;33.966;73.390;2023-04-06T03:00:55;78921.50;;;12.58;76.00
63665;BME280;49820;33.966;73.390;2023-04-06T03:03:24;78949.66;;;13.30;77.67
63665;BME280;49820;33.966;73.390;2023-04-06T03:05:56;78975.66;;;13.58;69.41
63665;BME280;49820;33.966;73.390;2023-04-06T03:08:30;78969.38;;;13.89;72.55
63665;BME280;49820;33.966;73.390;2023-04-06T03:10:59;78942.13;;;14.01;68.98
63665;BME280;49820;33.966;73.390;2023-04-06T03:13:36;78930.94;;;14.15;70.27
63665;BME280;49820;33.966;73.390;2023-04-06T03:16:07;78933.50;;;14.40;69.91
63665;BME280;49820;33.966;73.390;2023-04-06T03:18:37;78978.25;;;14.27;70.64
63665;BME280;49820;33.966;73.390;2023-04-06T03:21:06;78976.47;;;15.21;65.08
63665;BME280;49820;33.966;73.390;2023-04-06T03:23:45;78986.09;;;14.12;67.08
63665;BME280;49820;33.966;73.390;2023-04-06T03:26:14;78974.91;;;13.62;64.63
63665;BME280;49820;33.966;73.390;2023-04-06T03:28:44;78993.03;;;14.48;67.71
63665;BME280;49820;33.966;73.390;2023-04-06T03:31:14;78984.13;;;15.52;68.76
63665;BME280;49820;33.966;73.390;2023-04-06T03:33:50;78978.63;;;14.35;68.16
63665;BME280;49820;33.966;73.390;2023-04-06T03:36:26;79005.19;;;13.58;65.84
63665;BME280;49820;33.966;73.390;2023-04-06T03:38:57;78985.31;;;13.02;67.90
63665;BME280;49820;33.966;73.390;2023-04-06T03:41:26;79004.50;;;14.47;71.61
63665;BME280;49820;33.966;73.390;2023-04-06T03:44:01;79012.72;;;15.43;69.75
63665;BME280;49820;33.966;73.390;2023-04-06T03:46:30;79015.31;;;15.26;61.05
63665;BME280;49820;33.966;73.390;2023-04-06T03:49:00;78993.66;;;14.28;63.00
63665;BME280;49820;33.966;73.390;2023-04-06T03:51:29;78998.34;;;14.71;65.67
63665;BME280;49820;33.966;73.390;2023-04-06T03:53:59;79023.00;;;14.99;60.75
63665;BME280;49820;33.966;73.390;2023-04-06T03:56:29;79031.28;;;14.28;64.42
63665;BME280;49820;33.966;73.390;2023-04-06T03:58:58;79014.44;;;13.63;63.92
63665;BME280;49820;33.966;73.390;2023-04-06T04:01:27;79009.09;;;14.07;69.11
63665;BME280;49820;33.966;73.390;2023-04-06T04:03:57;79021.38;;;14.66;64.71
63665;BME280;49820;33.966;73.390;2023-04-06T04:06:26;79036.63;;;15.13;68.17
63665;BME280;49820;33.966;73.390;2023-04-06T04:08:55;79023.84;;;15.72;62.98
63665;BME280;49820;33.966;73.390;2023-04-06T04:11:25;79035.78;;;15.77;57.07
63665;BME280;49820;33.966;73.390;2023-04-06T04:13:57;79047.28;;;15.76;58.45
63665;BME280;49820;33.966;73.390;2023-04-06T04:16:28;79052.47;;;14.82;61.86
63665;BME280;49820;33.966;73.390;2023-04-06T04:18:57;79049.75;;;14.18;57.44
63665;BME280;49820;33.966;73.390;2023-04-06T04:21:29;79045.59;;;14.43;63.66
63665;BME280;49820;33.966;73.390;2023-04-06T04:24:07;79046.16;;;14.69;61.89
63665;BME280;49820;33.966;73.390;2023-04-06T04:26:37;79055.31;;;14.76;63.35
63665;BME280;49820;33.966;73.390;2023-04-06T04:29:07;79046.03;;;14.73;66.42
63665;BME280;49820;33.966;73.390;2023-04-06T04:31:38;79055.56;;;15.09;65.06
63665;BME280;49820;33.966;73.390;2023-04-06T04:34:14;79067.59;;;15.52;62.96
63665;BME280;49820;33.966;73.390;2023-04-06T04:36:44;79041.06;;;16.17;59.94
63665;BME280;49820;33.966;73.390;2023-04-06T04:39:21;79074.00;;;16.19;57.59
63665;BME280;49820;33.966;73.390;2023-04-06T04:41:58;79053.38;;;15.55;59.78
63665;BME280;49820;33.966;73.390;2023-04-06T04:44:30;79083.03;;;15.93;59.11
63665;BME280;49820;33.966;73.390;2023-04-06T04:46:59;79045.25;;;15.37;62.06
63665;BME280;49820;33.966;73.390;2023-04-06T04:49:39;79074.09;;;14.99;55.93
63665;BME280;49820;33.966;73.390;2023-04-06T04:52:09;79089.56;;;14.77;54.52
63665;BME280;49820;33.966;73.390;2023-04-06T04:54:51;79077.97;;;14.83;60.70
63665;BME280;49820;33.966;73.390;2023-04-06T04:57:26;79085.63;;;14.31;64.13
63665;BME280;49820;33.966;73.390;2023-04-06T04:59:56;79100.69;;;13.99;63.31
63665;BME280;49820;33.966;73.390;2023-04-06T05:02:26;79094.13;;;13.94;64.62
63665;BME280;49820;33.966;73.390;2023-04-06T05:05:18;79105.19;;;14.27;67.47
63665;BME280;49820;33.966;73.390;2023-04-06T05:07:50;79069.63;;;14.27;61.09
63665;BME280;49820;33.966;73.390;2023-04-06T05:10:48;79086.66;;;13.49;58.41
63665;BME280;49820;33.966;73.390;2023-04-06T05:13:18;79112.63;;;14.49;61.15
63665;BME280;49820;33.966;73.390;2023-04-06T05:15:49;79101.53;;;14.39;59.58
63665;BME280;49820;33.966;73.390;2023-04-06T05:18:31;79085.03;;;14.51;53.10
63665;BME280;49820;33.966;73.390;2023-04-06T05:21:01;79112.84;;;13.96;54.79
63665;BME280;49820;33.966;73.390;2023-04-06T05:23:53;79125.56;;;14.20;64.14
63665;BME280;49820;33.966;73.390;2023-04-06T05:26:24;79131.41;;;14.04;64.22
63665;BME280;49820;33.966;73.390;2023-04-06T05:29:00;79116.03;;;14.02;64.95
63665;BME280;49820;33.966;73.390;2023-04-06T05:31:33;79119.34;;;13.80;61.14
63665;BME280;49820;33.966;73.390;2023-04-06T05:34:02;79124.56;;;13.61;57.50
63665;BME280;49820;33.966;73.390;2023-04-06T05:36:34;79127.41;;;13.55;64.29
63665;BME280;49820;33.966;73.390;2023-04-06T05:39:17;79117.94;;;13.33;64.20
63665;BME280;49820;33.966;73.390;2023-04-06T05:41:51;79113.22;;;13.34;66.28
63665;BME280;49820;33.966;73.390;2023-04-06T05:44:37;79154.41;;;13.49;55.46
63665;BME280;49820;33.966;73.390;2023-04-06T05:47:11;79145.84;;;13.18;61.98
63665;BME280;49820;33.966;73.390;2023-04-06T05:49:43;79142.03;;;13.35;69.04
63665;BME280;49820;33.966;73.390;2023-04-06T05:52:24;79139.34;;;13.09;61.85
63665;BME280;49820;33.966;73.390;2023-04-06T05:54:53;79109.94;;;12.51;64.84
63665;BME280;49820;33.966;73.390;2023-04-06T05:57:24;79153.94;;;12.60;64.68
63665;BME280;49820;33.966;73.390;2023-04-06T05:59:54;79152.78;;;12.24;71.33
63665;BME280;49820;33.966;73.390;2023-04-06T06:02:29;79134.44;;;12.35;75.43
63665;BME280;49820;33.966;73.390;2023-04-06T06:05:00;79137.22;;;12.31;77.50
63665;BME280;49820;33.966;73.390;2023-04-06T06:07:30;79143.00;;;12.41;75.52
63665;BME280;49820;33.966;73.390;2023-04-06T06:10:02;79163.19;;;12.65;76.23
63665;BME280;49820;33.966;73.390;2023-04-06T06:12:35;79145.41;;;12.53;76.21
63665;BME280;49820;33.966;73.390;2023-04-06T06:15:06;79159.69;;;12.44;79.82
63665;BME280;49820;33.966;73.390;2023-04-06T06:17:39;79160.31;;;11.84;80.37
63665;BME280;49820;33.966;73.390;2023-04-06T06:20:09;79165.56;;;11.91;86.23
63665;BME280;49820;33.966;73.390;2023-04-06T06:22:39;79128.75;;;11.58;82.67
63665;BME280;49820;33.966;73.390;2023-04-06T06:25:13;79145.72;;;11.79;78.16
63665;BME280;49820;33.966;73.390;2023-04-06T06:27:46;79152.44;;;12.09;79.55
63665;BME280;49820;33.966;73.390;2023-04-06T06:30:17;79126.59;;;11.65;80.35
63665;BME280;49820;33.966;73.390;2023-04-06T06:32:51;79120.84;;;11.85;81.51
63665;BME280;49820;33.966;73.390;2023-04-06T06:35:22;79136.59;;;11.99;87.12
63665;BME280;49820;33.966;73.390;2023-04-06T06:37:52;79161.19;;;12.08;89.87
63665;BME280;49820;33.966;73.390;2023-04-06T06:40:25;79166.25;;;12.20;88.11
63665;BME280;49820;33.966;73.390;2023-04-06T06:42:56;79156.59;;;12.02;71.16
63665;BME280;49820;33.966;73.390;2023-04-06T06:45:46;79120.44;;;12.03;78.30
63665;BME280;49820;33.966;73.390;2023-04-06T06:48:15;79167.72;;;12.44;81.15
63665;BME280;49820;33.966;73.390;2023-04-06T06:50:48;79136.97;;;12.12;85.45
63665;BME280;49820;33.966;73.390;2023-04-06T06:53:19;79164.75;;;12.27;76.17
63665;BME280;49820;33.966;73.390;2023-04-06T06:55:48;79146.50;;;11.74;68.63
63665;BME280;49820;33.966;73.390;2023-04-06T06:58:52;79165.50;;;11.93;66.62
63665;BME280;49820;33.966;73.390;2023-04-06T07:01:56;79159.50;;;12.23;82.09
63665;BME280;49820;33.966;73.390;2023-04-06T07:05:00;79150.34;;;12.14;79.51
63665;BME280;49820;33.966;73.390;2023-04-06T07:07:36;79158.84;;;12.22;86.48
63665;BME280;49820;33.966;73.390;2023-04-06T07:10:22;79162.03;;;12.58;79.44
63665;BME280;49820;33.966;73.390;2023-04-06T07:13:26;79150.47;;;13.21;81.94
63665;BME280;49820;33.966;73.390;2023-04-06T07:15:58;79123.13;;;12.32;76.19
63665;BME280;49820;33.966;73.390;2023-04-06T07:19:01;79141.16;;;12.34;76.78
63665;BME280;49820;33.966;73.390;2023-04-06T07:22:05;79162.06;;;12.27;78.39
63665;BME280;49820;33.966;73.390;2023-04-06T07:25:10;79138.53;;;12.03;80.32
63665;BME280;49820;33.966;73.390;2023-04-06T07:28:13;79154.06;;;11.96;84.18
63665;BME280;49820;33.966;73.390;2023-04-06T07:30:42;79077.50;;;11.15;74.85
63665;BME280;49820;33.966;73.390;2023-04-06T07:33:46;79156.41;;;11.81;89.16
63665;BME280;49820;33.966;73.390;2023-04-06T07:36:50;79141.84;;;11.72;87.96
63665;BME280;49820;33.966;73.390;2023-04-06T07:39:55;79155.88;;;11.75;85.18
63665;BME280;49820;33.966;73.390;2023-04-06T07:42:59;79136.03;;;11.62;92.15
63665;BME280;49820;33.966;73.390;2023-04-06T07:46:05;79153.03;;;11.83;89.28
63665;BME280;49820;33.966;73.390;2023-04-06T07:49:09;79160.69;;;12.30;91.83
63665;BME280;49820;33.966;73.390;2023-04-06T07:52:12;79156.13;;;11.94;79.68
63665;BME280;49820;33.966;73.390;2023-04-06T07:55:16;79149.13;;;11.76;91.07
63665;BME280;49820;33.966;73.390;2023-04-06T07:58:20;79147.56;;;11.87;73.46
63665;BME280;49820;33.966;73.390;2023-04-06T08:00:49;79128.47;;;11.72;74.53
63665;BME280;49820;33.966;73.390;2023-04-06T08:03:53;79118.22;;;11.50;90.29
63665;BME280;49820;33.966;73.390;2023-04-06T08:06:58;79139.34;;;11.64;91.97
63665;BME280;49820;33.966;73.390;2023-04-06T08:10:03;79166.47;;;11.79;92.29
63665;BME280;49820;33.966;73.390;2023-04-06T08:13:06;79115.81;;;11.36;96.29
63665;BME280;49820;33.966;73.390;2023-04-06T08:15:36;79167.31;;;11.69;94.10
63665;BME280;49820;33.966;73.390;2023-04-06T08:18:05;79164.03;;;11.67;96.45
63665;BME280;49820;33.966;73.390;2023-04-06T08:20:54;79154.91;;;11.56;95.48
63665;BME280;49820;33.966;73.390;2023-04-06T08:23:58;79150.69;;;11.98;92.99
63665;BME280;49820;33.966;73.390;2023-04-06T08:27:02;79132.91;;;12.15;93.20
63665;BME280;49820;33.966;73.390;2023-04-06T08:29:31;79139.34;;;11.95;82.54
63665;BME280;49820;33.966;73.390;2023-04-06T08:32:35;79115.59;;;11.48;94.02
63665;BME280;49820;33.966;73.390;2023-04-06T08:35:04;79150.22;;;12.18;92.43
63665;BME280;49820;33.966;73.390;2023-04-06T08:38:08;79145.97;;;12.29;85.43
63665;BME280;49820;33.966;73.390;2023-04-06T08:41:13;79142.28;;;13.25;87.76
63665;BME280;49820;33.966;73.390;2023-04-06T08:44:16;79123.91;;;12.55;87.69
63665;BME280;49820;33.966;73.390;2023-04-06T08:47:04;79119.13;;;12.02;85.95
63665;BME280;49820;33.966;73.390;2023-04-06T08:50:10;79113.75;;;11.71;91.27
63665;BME280;49820;33.966;73.390;2023-04-06T08:53:16;79137.88;;;11.69;89.19
63665;BME280;49820;33.966;73.390;2023-04-06T08:56:25;79142.63;;;11.67;80.91
63665;BME280;49820;33.966;73.390;2023-04-06T08:58:55;79126.19;;;11.85;93.17
63665;BME280;49820;33.966;73.390;2023-04-06T09:02:03;79130.88;;;11.84;90.49
63665;BME280;49820;33.966;73.390;2023-04-06T09:04:34;79120.91;;;11.83;83.39
63665;BME280;49820;33.966;73.390;2023-04-06T09:07:22;79134.53;;;12.02;78.77
63665;BME280;49820;33.966;73.390;2023-04-06T09:10:27;79131.47;;;11.89;78.73
63665;BME280;49820;33.966;73.390;2023-04-06T09:13:05;79105.28;;;11.61;85.10
63665;BME280;49820;33.966;73.390;2023-04-06T09:16:09;79108.94;;;11.45;86.08
63665;BME280;49820;33.966;73.390;2023-04-06T09:19:13;79116.63;;;11.30;86.76
63665;BME280;49820;33.966;73.390;2023-04-06T09:22:06;79134.81;;;11.57;96.27
63665;BME280;49820;33.966;73.390;2023-04-06T09:25:19;79139.34;;;11.64;86.45
63665;BME280;49820;33.966;73.390;2023-04-06T09:28:24;79122.00;;;11.61;93.91
63665;BME280;49820;33.966;73.390;2023-04-06T09:31:30;79131.72;;;11.44;91.32
63665;BME280;49820;33.966;73.390;2023-04-06T09:34:39;79098.91;;;11.13;89.44
63665;BME280;49820;33.966;73.390;2023-04-06T09:37:43;79122.88;;;11.19;100.00
63665;BME280;49820;33.966;73.390;2023-04-06T09:40:13;79114.25;;;11.14;100.00
63665;BME280;49820;33.966;73.390;2023-04-06T09:43:25;79112.34;;;11.11;100.00
63665;BME280;49820;33.966;73.390;2023-04-06T09:45:55;79114.56;;;11.00;100.00
63665;BME280;49820;33.966;73.390;2023-04-06T09:49:03;79094.13;;;10.84;100.00
63665;BME280;49820;33.966;73.390;2023-04-06T09:51:53;79108.00;;;10.93;100.00
63665;BME280;49820;33.966;73.390;2023-04-06T09:55:04;79068.84;;;10.44;100.00
63665;BME280;49820;33.966;73.390;2023-04-06T09:58:16;79095.97;;;10.57;100.00
63665;BME280;49820;33.966;73.390;2023-04-06T10:01:30;79063.72;;;10.32;95.75
63665;BME280;49820;33.966;73.390;2023-04-06T10:04:13;79094.22;;;10.43;95.88
63665;BME280;49820;33.966;73.390;2023-04-06T10:07:40;79092.69;;;10.17;100.00
63665;BME280;49820;33.966;73.390;2023-04-06T10:10:46;79089.47;;;10.07;100.00
63665;BME280;49820;33.966;73.390;2023-04-06T10:14:09;79076.88;;;10.03;100.00
63665;BME280;49820;33.966;73.390;2023-04-06T10:17:32;79086.91;;;10.01;99.13
63665;BME280;49820;33.966;73.390;2023-04-06T10:20:33;79095.47;;;10.07;88.68
63665;BME280;49820;33.966;73.390;2023-04-06T10:26:13;79087.22;;;10.23;81.43
63665;BME280;49820;33.966;73.390;2023-04-06T10:29:17;79081.34;;;10.15;94.26
63665;BME280;49820;33.966;73.390;2023-04-06T10:32:33;79072.41;;;9.89;75.79
63665;BME280;49820;33.966;73.390;2023-04-06T10:35:37;79093.19;;;10.26;87.94
63665;BME280;49820;33.966;73.390;2023-04-06T10:38:44;79060.69;;;10.13;83.36
63665;BME280;49820;33.966;73.390;2023-04-06T10:41:48;79085.28;;;10.20;87.11
63665;BME280;49820;33.966;73.390;2023-04-06T10:44:21;79068.38;;;9.92;79.12
63665;BME280;49820;33.966;73.390;2023-04-06T10:47:25;79077.03;;;9.93;78.27
63665;BME280;49820;33.966;73.390;2023-04-06T10:50:14;79079.56;;;10.03;78.88
63665;BME280;49820;33.966;73.390;2023-04-06T10:53:26;79083.03;;;9.93;77.52
63665;BME280;49820;33.966;73.390;2023-04-06T10:56:31;79061.81;;;9.87;79.23
63665;BME280;49820;33.966;73.390;2023-04-06T10:59:02;79057.81;;;9.86;80.60
63665;BME280;49820;33.966;73.390;2023-04-06T11:02:07;79066.53;;;9.83;80.71
63665;BME280;49820;33.966;73.390;2023-04-06T11:05:11;79073.53;;;10.05;82.29
63665;BME280;49820;33.966;73.390;2023-04-06T11:07:41;79047.47;;;11.12;75.36
63665;BME280;49820;33.966;73.390;2023-04-06T11:10:45;79066.41;;;12.23;77.83
63665;BME280;49820;33.966;73.390;2023-04-06T11:13:14;79040.47;;;12.70;75.60
63665;BME280;49820;33.966;73.390;2023-04-06T11:16:26;79061.47;;;13.13;65.55
63665;BME280;49820;33.966;73.390;2023-04-06T11:19:13;79049.25;;;12.93;61.70
63665;BME280;49820;33.966;73.390;2023-04-06T11:21:46;79063.88;;;13.70;61.56
63665;BME280;49820;33.966;73.390;2023-04-06T11:24:20;79033.56;;;13.97;64.81
63665;BME280;49820;33.966;73.390;2023-04-06T11:27:24;79049.28;;;13.88;58.81
63665;BME280;49820;33.966;73.390;2023-04-06T11:30:29;79046.56;;;14.11;57.03
63665;BME280;49820;33.966;73.390;2023-04-06T11:33:37;79053.69;;;13.98;60.24
63665;BME280;49820;33.966;73.390;2023-04-06T11:36:07;79020.00;;;12.83;59.88
63665;BME280;49820;33.966;73.390;2023-04-06T11:39:13;79048.81;;;13.34;61.06
63665;BME280;49820;33.966;73.390;2023-04-06T11:42:28;79048.78;;;14.04;60.06
63665;BME280;49820;33.966;73.390;2023-04-06T11:45:42;79044.97;;;14.20;57.92
63665;BME280;49820;33.966;73.390;2023-04-06T11:48:30;79063.19;;;14.61;64.30
63665;BME280;49820;33.966;73.390;2023-04-06T11:51:24;79058.06;;;13.39;58.63
63665;BME280;49820;33.966;73.390;2023-04-06T11:54:37;79067.56;;;12.84;63.62
63665;BME280;49820;33.966;73.390;2023-04-06T11:57:08;79069.66;;;12.55;62.76
63665;BME280;49820;33.966;73.390;2023-04-06T12:00:12;79061.59;;;12.28;75.44
63665;BME280;49820;33.966;73.390;2023-04-06T12:03:16;79056.28;;;12.26;69.01
63665;BME280;49820;33.966;73.390;2023-04-06T12:05:46;79071.31;;;12.15;69.42
63665;BME280;49820;33.966;73.390;2023-04-06T12:08:15;78959.66;;;11.23;72.65
63665;BME280;49820;33.966;73.390;2023-04-06T12:11:02;79044.00;;;11.79;72.51
63665;BME280;49820;33.966;73.390;2023-04-06T12:13:47;79056.78;;;11.77;74.23
63665;BME280;49820;33.966;73.390;2023-04-06T12:16:52;79082.03;;;11.84;74.00
63665;BME280;49820;33.966;73.390;2023-04-06T12:19:21;79068.84;;;11.76;74.47
63665;BME280;49820;33.966;73.390;2023-04-06T12:22:28;79054.28;;;11.38;74.60
63665;BME280;49820;33.966;73.390;2023-04-06T12:25:32;79056.59;;;11.23;75.38
63665;BME280;49820;33.966;73.390;2023-04-06T12:28:01;79054.88;;;11.09;78.61
63665;BME280;49820;33.966;73.390;2023-04-06T12:31:05;79074.00;;;11.22;76.92
63665;BME280;49820;33.966;73.390;2023-04-06T12:33:51;79076.50;;;10.97;82.56
63665;BME280;49820;33.966;73.390;2023-04-06T12:36:55;79055.06;;;10.66;79.51
63665;BME280;49820;33.966;73.390;2023-04-06T12:39:25;79060.47;;;10.62;76.27
63665;BME280;49820;33.966;73.390;2023-04-06T12:41:55;79040.06;;;10.47;74.10
63665;BME280;49820;33.966;73.390;2023-04-06T12:44:24;79078.25;;;10.76;73.71
63665;BME280;49820;33.966;73.390;2023-04-06T12:47:11;79071.31;;;10.54;78.03
63665;BME280;49820;33.966;73.390;2023-04-06T12:50:15;79054.97;;;10.36;77.20
63665;BME280;49820;33.966;73.390;2023-04-06T12:53:19;79074.56;;;10.22;80.39
63665;BME280;49820;33.966;73.390;2023-04-06T12:56:23;79092.16;;;10.07;81.16
63665;BME280;49820;33.966;73.390;2023-04-06T12:59:27;79071.69;;;9.93;84.22
63665;BME280;49820;33.966;73.390;2023-04-06T13:01:56;79095.03;;;9.94;86.89
63665;BME280;49820;33.966;73.390;2023-04-06T13:04:25;79039.91;;;9.38;86.95
63665;BME280;49820;33.966;73.390;2023-04-06T13:06:54;79090.94;;;9.58;88.22
63665;BME280;49820;33.966;73.390;2023-04-06T13:09:58;79087.19;;;9.41;85.75
63665;BME280;49820;33.966;73.390;2023-04-06T13:13:02;79090.06;;;9.27;87.04
63665;BME280;49820;33.966;73.390;2023-04-06T13:15:31;79080.91;;;9.16;88.37
63665;BME280;49820;33.966;73.390;2023-04-06T13:18:36;79041.19;;;8.47;98.41
63665;BME280;49820;33.966;73.390;2023-04-06T13:21:07;79094.22;;;8.65;100.00
63665;BME280;49820;33.966;73.390;2023-04-06T13:24:11;79070.72;;;8.24;100.00
63665;BME280;49820;33.966;73.390;2023-04-06T13:26:43;79035.16;;;7.93;100.00
63665;BME280;49820;33.966;73.390;2023-04-06T13:29:12;79066.19;;;8.13;100.00
63665;BME280;49820;33.966;73.390;2023-04-06T13:31:58;79085.53;;;8.09;99.10
63665;BME280;49820;33.966;73.390;2023-04-06T13:35:02;79033.25;;;7.85;93.77
63665;BME280;49820;33.966;73.390;2023-04-06T13:37:33;79081.47;;;8.12;98.02
63665;BME280;49820;33.966;73.390;2023-04-06T13:40:40;79082.53;;;7.76;100.00
63665;BME280;49820;33.966;73.390;2023-04-06T13:43:09;79068.16;;;7.49;100.00
63665;BME280;49820;33.966;73.390;2023-04-06T13:45:39;79061.06;;;7.25;100.00
63665;BME280;49820;33.966;73.390;2023-04-06T13:48:26;79092.16;;;7.41;100.00
63665;BME280;49820;33.966;73.390;2023-04-06T13:51:29;79071.69;;;7.25;100.00
63665;BME280;49820;33.966;73.390;2023-04-06T13:54:34;79081.69;;;7.18;100.00
63665;BME280;49820;33.966;73.390;2023-04-06T13:57:21;79065.31;;;6.92;100.00
63665;BME280;49820;33.966;73.390;2023-04-06T13:59:50;79084.53;;;6.94;100.00
63665;BME280;49820;33.966;73.390;2023-04-06T14:02:24;79079.88;;;6.97;100.00
63665;BME280;49820;33.966;73.390;2023-04-06T14:05:33;79104.41;;;7.01;100.00
63665;BME280;49820;33.966;73.390;2023-04-06T14:08:37;79098.59;;;6.80;100.00
63665;BME280;49820;33.966;73.390;2023-04-06T14:11:40;79111.84;;;6.80;100.00
63665;BME280;49820;33.966;73.390;2023-04-06T14:14:09;79090.72;;;6.64;100.00
63665;BME280;49820;33.966;73.390;2023-04-06T14:17:13;79107.22;;;6.77;100.00
63665;BME280;49820;33.966;73.390;2023-04-06T14:20:18;79105.72;;;7.04;94.73
63665;BME280;49820;33.966;73.390;2023-04-06T14:23:04;79102.25;;;7.22;89.00
63665;BME280;49820;33.966;73.390;2023-04-06T14:26:08;79105.06;;;7.04;96.64